Time;durP1;ratioP1;P1;durP2;ratioP2;P2;SDS_P1;SDS_P2;PMS_P1;PMS_P2;Temp;Humidity;BMP_temperature;BMP_pressure;BME280_temperature;BME280_humidity;BME280_pressure;Samples;Min_cycle;Max_cycle;Signal;HPM_P1;HPM_P2
2022/07/20 00:02:21;;;;;;;2.35;2.15;;;22.50;95.30;;;;;;5085442;28;22114;-65
2022/07/20 00:04:49;;;;;;;2.45;2.35;;;22.60;95.30;;;;;;5084842;28;20181;-65
2022/07/20 00:07:17;;;;;;;2.30;2.20;;;22.50;95.30;;;;;;5085435;28;20191;-65
2022/07/20 00:12:30;;;;;;;1.95;1.85;;;22.50;95.30;;;;;;5083372;28;20996;-65
2022/07/20 00:14:57;;;;;;;2.03;1.92;;;22.50;95.40;;;;;;5086391;28;20231;-65
2022/07/20 00:17:24;;;;;;;2.42;2.05;;;22.50;95.40;;;;;;5086491;28;20253;-65
2022/07/20 00:19:52;;;;;;;3.17;2.40;;;22.40;95.30;;;;;;5089420;28;20195;-66
2022/07/20 00:22:19;;;;;;;2.10;2.00;;;22.40;95.30;;;;;;5083040;28;20193;-65
2022/07/20 00:24:46;;;;;;;1.80;1.70;;;22.40;95.40;;;;;;5085661;28;20218;-65
2022/07/20 00:27:13;;;;;;;1.85;1.75;;;22.40;95.40;;;;;;5085161;28;20184;-65
2022/07/20 00:29:41;;;;;;;2.00;1.90;;;22.60;95.40;;;;;;5083520;28;20202;-65
2022/07/20 00:32:08;;;;;;;3.30;1.85;;;22.40;95.30;;;;;;5084029;28;20513;-65
2022/07/20 00:34:36;;;;;;;1.90;1.80;;;22.30;95.30;;;;;;5082991;28;20192;-66
2022/07/20 00:37:03;;;;;;;2.00;1.80;;;22.30;95.20;;;;;;5085364;28;20553;-65
2022/07/20 00:39:30;;;;;;;2.03;1.90;;;22.30;95.20;;;;;;5088231;28;20188;-66
2022/07/20 00:41:57;;;;;;;1.73;1.63;;;22.40;95.20;;;;;;5084088;28;21083;-65
2022/07/20 00:44:24;;;;;;;1.90;1.80;;;22.40;95.10;;;;;;5084301;28;20819;-65
2022/07/20 00:46:55;;;;;;;1.92;1.83;;;22.40;95.10;;;;;;5084806;28;20191;-65
2022/07/20 00:49:23;;;;;;;1.88;1.77;;;22.40;95.00;;;;;;5084009;28;21961;-65
2022/07/20 00:51:50;;;;;;;2.35;2.15;;;22.40;95.00;;;;;;5084207;28;20700;-66
2022/07/20 00:54:17;;;;;;;2.10;2.00;;;22.40;95.10;;;;;;5085275;28;20729;-65
2022/07/20 00:56:45;;;;;;;1.77;1.67;;;22.40;95.10;;;;;;5083596;28;20689;-65
2022/07/20 00:59:12;;;;;;;2.42;1.90;;;22.40;95.20;;;;;;5097082;27;20253;-64
2022/07/20 01:01:40;;;;;;;1.95;1.70;;;22.40;95.20;;;;;;5085564;28;20824;-66
2022/07/20 01:04:08;;;;;;;2.60;2.40;;;22.30;95.30;;;;;;5085141;28;20207;-65
2022/07/20 01:06:35;;;;;;;2.13;2.03;;;22.30;95.40;;;;;;5081976;28;20710;-65
2022/07/20 01:09:03;;;;;;;2.03;1.92;;;22.30;95.40;;;;;;5083677;28;20199;-65
2022/07/20 01:11:30;;;;;;;2.08;1.98;;;22.30;95.50;;;;;;5083899;28;20204;-66
2022/07/20 01:14:02;;;;;;;1.77;1.67;;;22.30;95.50;;;;;;5084830;28;20358;-64
2022/07/20 01:16:29;;;;;;;2.38;2.17;;;22.30;95.60;;;;;;5083096;28;20607;-64
2022/07/20 01:18:56;;;;;;;2.10;2.00;;;22.20;95.60;;;;;;5084598;28;20314;-65
2022/07/20 01:21:24;;;;;;;2.10;2.00;;;22.10;95.70;;;;;;5085846;28;20276;-65
2022/07/20 01:23:52;;;;;;;2.22;2.00;;;22.10;95.70;;;;;;5087798;28;20273;-65
2022/07/20 01:26:19;;;;;;;2.08;1.98;;;22.10;95.80;;;;;;5086560;28;20299;-63
2022/07/20 01:28:47;;;;;;;2.05;1.95;;;22.00;95.80;;;;;;5087073;28;20200;-63
2022/07/20 01:31:14;;;;;;;3.80;2.67;;;22.10;95.90;;;;;;5088612;28;20286;-63
2022/07/20 01:33:41;;;;;;;2.45;2.25;;;22.00;95.90;;;;;;5087540;28;20287;-64
2022/07/20 01:36:09;;;;;;;2.13;2.03;;;22.00;96.00;;;;;;5087359;27;20997;-64
2022/07/20 01:38:38;;;;;;;1.95;1.85;;;21.90;96.00;;;;;;5087390;28;20235;-65
2022/07/20 01:41:05;;;;;;;1.90;1.80;;;21.90;96.10;;;;;;5102971;27;20555;-64
2022/07/20 01:43:32;;;;;;;2.50;2.25;;;21.80;96.10;;;;;;5086349;28;20238;-64
2022/07/20 01:45:59;;;;;;;2.53;2.10;;;21.80;96.20;;;;;;5089313;28;20284;-65
2022/07/20 01:48:26;;;;;;;2.88;2.13;;;21.80;96.30;;;;;;5087887;28;20192;-64
2022/07/20 01:50:54;;;;;;;3.35;2.30;;;21.80;96.30;;;;;;5085384;27;20221;-64
2022/07/20 01:53:21;;;;;;;1.95;1.85;;;21.80;96.30;;;;;;5086668;28;20196;-65
2022/07/20 01:55:49;;;;;;;2.08;1.95;;;21.80;96.30;;;;;;5087169;28;20228;-65
2022/07/20 01:58:16;;;;;;;1.80;1.70;;;21.80;96.30;;;;;;5086631;28;20205;-64
2022/07/20 02:00:43;;;;;;;1.90;1.80;;;21.80;96.40;;;;;;5091339;28;20200;-64
2022/07/20 02:03:10;;;;;;;2.10;2.00;;;21.80;96.50;;;;;;5088696;28;20997;-64
2022/07/20 02:05:38;;;;;;;2.15;2.05;;;21.80;96.50;;;;;;5087069;28;20382;-66
2022/07/20 02:08:05;;;;;;;1.90;1.80;;;21.80;96.50;;;;;;5086472;28;21081;-66
2022/07/20 02:10:33;;;;;;;3.05;1.80;;;21.80;96.60;;;;;;5087536;28;20573;-67
2022/07/20 02:13:02;;;;;;;7.30;2.10;;;21.80;96.60;;;;;;5087965;27;20220;-66
2022/07/20 02:18:14;;;;;;;2.00;1.90;;;21.80;96.70;;;;;;5089668;28;20208;-67
2022/07/20 02:20:42;;;;;;;2.15;1.95;;;21.80;96.70;;;;;;5088102;28;20188;-67
2022/07/20 02:23:10;;;;;;;2.00;1.90;;;21.70;96.70;;;;;;5086673;28;20305;-67
2022/07/20 02:25:39;;;;;;;2.33;2.13;;;21.70;96.80;;;;;;5089799;27;20204;-67
2022/07/20 02:28:08;;;;;;;2.33;2.15;;;21.60;96.80;;;;;;5090431;28;20196;-68
2022/07/20 02:30:36;;;;;;;2.15;2.05;;;21.60;96.90;;;;;;5086334;27;20219;-67
2022/07/20 02:33:04;;;;;;;2.15;1.95;;;21.60;97.00;;;;;;5089092;28;20220;-68
2022/07/20 02:35:31;;;;;;;2.00;1.70;;;21.60;97.10;;;;;;5086045;27;20627;-66
2022/07/20 02:37:58;;;;;;;2.28;2.10;;;21.60;97.10;;;;;;5086588;28;20684;-66
2022/07/20 02:40:26;;;;;;;2.40;2.20;;;21.60;97.10;;;;;;5086760;28;20228;-67
2022/07/20 02:42:53;;;;;;;3.13;2.28;;;21.60;97.20;;;;;;5086639;28;20196;-66
2022/07/20 02:45:22;;;;;;;2.25;2.05;;;21.60;97.20;;;;;;5099601;27;20525;-66
2022/07/20 02:47:49;;;;;;;1.98;1.88;;;21.60;97.30;;;;;;5103217;27;20261;-66
2022/07/20 02:50:16;;;;;;;2.30;2.10;;;21.50;97.30;;;;;;5084663;28;20224;-65
2022/07/20 02:52:44;;;;;;;2.10;2.00;;;21.50;97.30;;;;;;5088016;28;20196;-65
2022/07/20 02:55:12;;;;;;;2.28;2.08;;;21.50;97.40;;;;;;5085242;28;20519;-66
2022/07/20 02:57:39;;;;;;;1.95;1.85;;;21.40;97.40;;;;;;5086874;28;20199;-66
2022/07/20 03:00:09;;;;;;;3.22;1.92;;;21.40;97.50;;;;;;5086674;28;20201;-66
2022/07/20 03:02:38;;;;;;;3.35;2.20;;;21.50;97.60;;;;;;5082945;28;20193;-67
2022/07/20 03:05:06;;;;;;;2.10;2.00;;;21.50;97.70;;;;;;5085162;28;20255;-67
2022/07/20 03:07:33;;;;;;;2.40;2.20;;;21.40;97.60;;;;;;5086865;28;20202;-66
2022/07/20 03:10:00;;;;;;;1.92;1.80;;;21.50;97.70;;;;;;5085472;28;20207;-66
2022/07/20 03:12:27;;;;;;;1.88;1.77;;;21.50;97.70;;;;;;5084918;28;20196;-66
2022/07/20 03:14:54;;;;;;;2.10;2.00;;;21.50;97.80;;;;;;5086575;28;20346;-65
2022/07/20 03:17:21;;;;;;;1.85;1.75;;;21.40;97.80;;;;;;5086462;28;20611;-65
2022/07/20 03:19:50;;;;;;;2.33;2.13;;;21.50;97.90;;;;;;5087317;28;20884;-64
2022/07/20 03:22:17;;;;;;;3.25;2.15;;;21.40;97.90;;;;;;5084954;28;20191;-65
2022/07/20 03:24:44;;;;;;;2.40;1.90;;;21.40;98.30;;;;;;5086123;28;20289;-65
2022/07/20 03:27:12;;;;;;;2.03;1.92;;;21.40;98.00;;;;;;5089145;28;20281;-65
2022/07/20 03:29:39;;;;;;;2.00;1.90;;;21.40;98.00;;;;;;5098521;27;20211;-65
2022/07/20 03:32:06;;;;;;;3.15;2.00;;;21.30;98.00;;;;;;5085689;28;20188;-65
2022/07/20 03:34:33;;;;;;;1.90;1.80;;;21.30;98.10;;;;;;5086374;28;20551;-65
2022/07/20 03:37:02;;;;;;;2.22;2.13;;;21.30;98.20;;;;;;5085678;28;20211;-65
2022/07/20 03:39:29;;;;;;;2.30;2.20;;;21.30;98.20;;;;;;5087364;28;20212;-65
2022/07/20 03:41:56;;;;;;;1.95;1.85;;;21.30;98.20;;;;;;5086407;28;20202;-65
2022/07/20 03:44:23;;;;;;;1.98;1.88;;;21.40;98.30;;;;;;5085027;28;20265;-64
2022/07/20 03:46:50;;;;;;;1.90;1.80;;;21.30;98.20;;;;;;5085056;28;20204;-65
2022/07/20 03:49:17;;;;;;;2.35;2.25;;;21.40;98.30;;;;;;5084688;28;20284;-65
2022/07/20 03:51:44;;;;;;;2.35;2.15;;;21.40;98.30;;;;;;5084195;28;20208;-65
2022/07/20 03:54:13;;;;;;;2.85;2.08;;;21.40;98.30;;;;;;5087810;28;20727;-65
2022/07/20 03:56:41;;;;;;;2.50;2.30;;;21.40;98.30;;;;;;5084173;28;20192;-65
2022/07/20 03:59:08;;;;;;;2.60;2.00;;;21.40;98.60;;;;;;5083459;28;20208;-64
2022/07/20 04:01:36;;;;;;;2.30;2.03;;;21.40;98.40;;;;;;5084848;28;20307;-66
2022/07/20 04:04:04;;;;;;;3.10;2.60;;;21.40;98.40;;;;;;5101509;27;20199;-65
2022/07/20 04:06:31;;;;;;;3.92;2.42;;;21.40;98.40;;;;;;5084672;28;20295;-63
2022/07/20 04:08:58;;;;;;;2.72;2.53;;;21.40;98.50;;;;;;5083010;28;20731;-63
2022/07/20 04:11:27;;;;;;;2.47;2.30;;;21.40;98.50;;;;;;5100138;27;20199;-63
2022/07/20 04:13:55;;;;;;;2.28;2.08;;;21.40;98.60;;;;;;5079987;28;20235;-63
2022/07/20 04:16:22;;;;;;;2.63;2.42;;;21.50;98.60;;;;;;5085663;28;20686;-66
2022/07/20 04:18:49;;;;;;;2.60;2.40;;;21.40;98.50;;;;;;5084962;28;20216;-64
2022/07/20 04:21:16;;;;;;;2.50;2.30;;;21.50;98.50;;;;;;5084241;28;20307;-64
2022/07/20 04:23:44;;;;;;;2.88;2.67;;;21.50;98.50;;;;;;5086935;28;20192;-65
2022/07/20 04:26:11;;;;;;;5.90;2.58;;;21.50;98.80;;;;;;5083792;28;20289;-65
2022/07/20 04:28:40;;;;;;;2.05;1.90;;;21.50;98.40;;;;;;5084039;28;20192;-66
2022/07/20 04:31:07;;;;;;;2.47;2.28;;;21.50;98.40;;;;;;5083430;28;20195;-64
2022/07/20 04:33:34;;;;;;;2.22;2.05;;;21.50;98.40;;;;;;5083961;28;20275;-64
2022/07/20 04:36:01;;;;;;;2.63;2.42;;;21.50;98.30;;;;;;5084928;28;20683;-64
2022/07/20 04:38:28;;;;;;;2.95;2.75;;;21.50;98.30;;;;;;5080794;28;20220;-67
2022/07/20 04:40:55;;;;;;;2.92;2.65;;;21.60;98.30;;;;;;5086184;28;20203;-65
2022/07/20 04:43:23;;;;;;;2.88;2.60;;;21.50;98.30;;;;;;5096666;28;20288;-65
2022/07/20 04:45:51;;;;;;;2.28;2.17;;;21.50;98.30;;;;;;5086076;28;20203;-66
2022/07/20 04:48:20;;;;;;;2.67;2.47;;;21.50;98.30;;;;;;5085839;28;20267;-66
2022/07/20 04:50:47;;;;;;;2.40;2.20;;;21.50;98.30;;;;;;5085757;28;20214;-65
2022/07/20 04:53:14;;;;;;;2.08;1.95;;;21.60;98.40;;;;;;5084327;28;20287;-65
2022/07/20 04:55:41;;;;;;;2.33;2.20;;;21.60;98.30;;;;;;5084362;28;20196;-66
2022/07/20 04:58:08;;;;;;;3.38;2.35;;;21.70;98.40;;;;;;5087992;28;20241;-66
2022/07/20 05:00:35;;;;;;;2.00;1.90;;;21.70;98.40;;;;;;5118695;27;20235;-66
2022/07/20 05:03:04;;;;;;;3.95;2.47;;;21.70;98.40;;;;;;5088730;28;20646;-66
2022/07/20 05:05:31;;;;;;;3.25;2.90;;;21.70;98.30;;;;;;5087956;28;20758;-65
2022/07/20 05:07:58;;;;;;;4.05;2.53;;;21.80;98.40;;;;;;5087764;28;20246;-66
2022/07/20 05:10:25;;;;;;;3.70;3.40;;;21.80;98.40;;;;;;5102243;27;20288;-66
2022/07/20 05:12:52;;;;;;;3.58;3.33;;;21.80;98.50;;;;;;5087981;28;20203;-67
2022/07/20 05:15:23;;;;;;;3.40;3.10;;;21.80;98.60;;;;;;5088424;28;20232;-66
2022/07/20 05:17:50;;;;;;;3.55;3.17;;;21.80;98.60;;;;;;5089837;28;20665;-65
2022/07/20 05:20:19;;;;;;;3.38;3.08;;;21.90;98.70;;;;;;5102672;27;20208;-66
2022/07/20 05:22:46;;;;;;;2.45;2.25;;;21.90;98.80;;;;;;5088568;28;20275;-65
2022/07/20 05:25:14;;;;;;;2.97;2.67;;;21.90;98.80;;;;;;5087540;28;20196;-66
2022/07/20 05:27:41;;;;;;;2.17;2.00;;;22.00;98.90;;;;;;5088839;28;20664;-65
2022/07/20 05:30:09;;;;;;;2.53;1.95;;;22.00;98.90;;;;;;5086604;28;20204;-63
2022/07/20 05:32:36;;;;;;;2.17;2.08;;;22.00;99.00;;;;;;5084167;28;20485;-63
2022/07/20 05:35:03;;;;;;;3.08;2.55;;;22.10;99.00;;;;;;5089162;28;20196;-65
2022/07/20 05:37:32;;;;;;;4.07;3.28;;;22.10;99.10;;;;;;5085646;28;20662;-66
2022/07/20 05:39:59;;;;;;;8.00;4.07;;;22.20;99.10;;;;;;5085960;27;22658;-63
2022/07/20 05:42:26;;;;;;;3.78;3.47;;;22.20;99.20;;;;;;5087931;27;20276;-63
2022/07/20 05:44:53;;;;;;;4.28;3.47;;;22.20;99.20;;;;;;5088265;28;20204;-63
2022/07/20 05:47:20;;;;;;;3.35;3.15;;;22.30;99.30;;;;;;5087443;28;20216;-64
2022/07/20 05:49:48;;;;;;;3.42;3.17;;;22.30;99.40;;;;;;5090882;28;20220;-62
2022/07/20 05:52:15;;;;;;;3.25;2.92;;;22.30;99.40;;;;;;5087897;28;20200;-62
2022/07/20 05:54:44;;;;;;;3.30;3.10;;;22.40;99.50;;;;;;5087369;28;20201;-63
2022/07/20 05:57:12;;;;;;;5.05;2.97;;;22.40;99.50;;;;;;5091272;28;20550;-63
2022/07/20 05:59:39;;;;;;;4.05;2.58;;;22.50;99.60;;;;;;5087235;28;20223;-61
2022/07/20 06:02:06;;;;;;;2.25;2.05;;;22.50;99.40;;;;;;5086076;28;22571;-62
2022/07/20 06:04:33;;;;;;;3.55;2.45;;;22.60;99.10;;;;;;5086195;28;20619;-62
2022/07/20 06:07:00;;;;;;;2.30;2.10;;;22.50;98.60;;;;;;5083491;28;20322;-62
2022/07/20 06:09:27;;;;;;;2.05;1.95;;;22.70;98.40;;;;;;5090401;28;20233;-63
2022/07/20 06:11:56;;;;;;;2.20;2.00;;;22.70;98.20;;;;;;5087749;28;20201;-62
2022/07/20 06:14:23;;;;;;;1.90;1.77;;;22.70;98.00;;;;;;5085283;28;20233;-63
2022/07/20 06:16:50;;;;;;;2.70;1.70;;;22.80;97.80;;;;;;5087263;28;20191;-61
2022/07/20 06:19:17;;;;;;;3.60;2.00;;;22.80;97.50;;;;;;5086906;28;20224;-63
2022/07/20 06:21:44;;;;;;;2.05;1.95;;;22.90;97.30;;;;;;5085592;28;20597;-63
2022/07/20 06:24:12;;;;;;;2.42;1.90;;;22.90;97.00;;;;;;5087573;28;20238;-62
2022/07/20 06:26:39;;;;;;;1.90;1.80;;;23.00;96.80;;;;;;5087017;28;20677;-65
2022/07/20 06:29:07;;;;;;;3.22;2.17;;;23.00;96.60;;;;;;5087202;28;20184;-65
2022/07/20 06:31:34;;;;;;;2.78;2.58;;;23.00;96.20;;;;;;5089127;28;20204;-64
2022/07/20 06:34:02;;;;;;;3.53;2.38;;;23.00;95.80;;;;;;5086177;28;20693;-63
2022/07/20 06:36:29;;;;;;;3.03;2.60;;;23.10;95.30;;;;;;5086354;28;20288;-64
2022/07/20 06:38:56;;;;;;;3.70;2.55;;;23.10;95.30;;;;;;5085214;28;20206;-65
2022/07/20 06:41:23;;;;;;;4.10;2.80;;;23.20;95.10;;;;;;5085614;28;20826;-65
2022/07/20 06:43:50;;;;;;;2.47;2.28;;;23.20;94.90;;;;;;5087041;28;20201;-65
2022/07/20 06:46:19;;;;;;;2.90;2.63;;;23.20;94.50;;;;;;5086507;28;20644;-65
2022/07/20 06:48:46;;;;;;;2.50;2.30;;;23.30;94.40;;;;;;5086682;28;20212;-65
2022/07/20 06:51:13;;;;;;;2.67;2.47;;;23.30;94.10;;;;;;5115529;27;20207;-65
2022/07/20 06:53:40;;;;;;;3.70;2.53;;;23.30;93.80;;;;;;5085429;28;20251;-66
2022/07/20 06:56:07;;;;;;;2.60;2.40;;;23.30;93.70;;;;;;5084891;28;20280;-65
2022/07/20 06:58:34;;;;;;;2.80;2.60;;;23.40;93.90;;;;;;5085038;28;20301;-63
2022/07/20 07:01:02;;;;;;;4.45;2.88;;;23.50;93.90;;;;;;5085588;28;20326;-64
2022/07/20 07:03:31;;;;;;;3.60;2.33;;;23.50;93.90;;;;;;5086646;28;20199;-65
2022/07/20 07:05:58;;;;;;;2.60;2.40;;;23.60;93.80;;;;;;5085166;28;22178;-65
2022/07/20 07:08:25;;;;;;;2.63;2.42;;;23.60;93.40;;;;;;5085303;28;20192;-65
2022/07/20 07:10:52;;;;;;;4.45;2.42;;;23.60;93.20;;;;;;5085737;28;20677;-65
2022/07/20 07:13:19;;;;;;;2.90;2.38;;;23.70;92.90;;;;;;5084056;28;20196;-65
2022/07/20 07:15:46;;;;;;;2.28;2.08;;;23.70;92.70;;;;;;5082185;28;20849;-65
2022/07/20 07:18:13;;;;;;;1.77;1.67;;;23.80;92.60;;;;;;5083352;28;20205;-65
2022/07/20 07:20:41;;;;;;;2.67;1.88;;;23.80;92.60;;;;;;5085136;28;20211;-64
2022/07/20 07:23:10;;;;;;;3.85;2.38;;;23.90;92.50;;;;;;5084301;28;20311;-65
2022/07/20 07:25:37;;;;;;;2.28;2.08;;;23.90;92.40;;;;;;5086520;28;20208;-64
2022/07/20 07:28:05;;;;;;;4.30;2.60;;;24.00;92.90;;;;;;5084820;28;20191;-65
2022/07/20 07:30:33;;;;;;;1.95;1.85;;;24.00;92.30;;;;;;5085237;28;20192;-65
2022/07/20 07:33:00;;;;;;;2.50;2.30;;;24.10;92.30;;;;;;5084835;28;20369;-65
2022/07/20 07:35:27;;;;;;;2.33;2.20;;;24.20;92.20;;;;;;5085215;28;20192;-63
2022/07/20 07:37:55;;;;;;;2.35;2.10;;;24.20;92.20;;;;;;5085401;28;20203;-65
2022/07/20 07:40:23;;;;;;;1.77;1.67;;;24.30;92.10;;;;;;5088132;28;20224;-65
2022/07/20 07:42:50;;;;;;;2.38;2.17;;;24.30;91.90;;;;;;5084114;28;20288;-65
2022/07/20 07:45:17;;;;;;;2.00;1.90;;;24.40;91.80;;;;;;5083381;28;20200;-65
2022/07/20 07:47:46;;;;;;;2.50;2.30;;;24.40;91.50;;;;;;5087247;28;20937;-65
2022/07/20 07:50:13;;;;;;;2.25;2.13;;;24.40;91.40;;;;;;5086423;28;20196;-65
2022/07/20 07:52:40;;;;;;;2.45;2.25;;;24.50;91.20;;;;;;5084767;28;20204;-65
2022/07/20 07:55:10;;;;;;;2.13;2.03;;;24.60;91.10;;;;;;5083765;28;20208;-65
2022/07/20 07:57:37;;;;;;;5.38;2.00;;;24.60;91.00;;;;;;5084756;28;20696;-65
2022/07/20 08:00:06;;;;;;;2.17;2.08;;;24.70;90.90;;;;;;5087237;28;20750;-65
2022/07/20 08:02:38;;;;;;;2.58;2.17;;;24.70;90.90;;;;;;5080548;28;20285;-65
2022/07/20 08:05:06;;;;;;;2.90;2.60;;;24.80;90.90;;;;;;5100889;27;20298;-65
2022/07/20 08:07:36;;;;;;;2.15;2.05;;;24.90;90.90;;;;;;5084726;28;20266;-64
2022/07/20 08:10:03;;;;;;;1.88;1.77;;;24.90;90.90;;;;;;5085901;28;20200;-65
2022/07/20 08:12:31;;;;;;;2.40;2.20;;;25.00;90.80;;;;;;5082169;28;20634;-65
2022/07/20 08:14:58;;;;;;;2.33;2.22;;;25.10;90.70;;;;;;5084919;28;20242;-65
2022/07/20 08:17:25;;;;;;;2.55;2.38;;;25.10;90.60;;;;;;5085662;28;20295;-65
2022/07/20 08:19:53;;;;;;;2.45;2.25;;;25.20;90.40;;;;;;5083647;28;20212;-65
2022/07/20 08:22:20;;;;;;;2.72;2.08;;;25.30;90.30;;;;;;5082909;28;20231;-65
2022/07/20 08:24:47;;;;;;;2.40;2.20;;;25.30;90.20;;;;;;5086730;28;20198;-65
2022/07/20 08:27:14;;;;;;;3.40;2.20;;;25.40;90.20;;;;;;5083774;28;20254;-65
2022/07/20 08:29:43;;;;;;;3.40;2.85;;;25.50;90.10;;;;;;5084506;28;20280;-65
2022/07/20 08:32:10;;;;;;;10.32;5.90;;;25.50;90.00;;;;;;5088952;28;20713;-65
2022/07/20 08:34:37;;;;;;;7.50;4.80;;;25.60;90.20;;;;;;5089909;28;20204;-65
2022/07/20 08:37:04;;;;;;;4.00;3.38;;;25.60;90.00;;;;;;5088472;28;20674;-65
2022/07/20 08:39:32;;;;;;;6.57;2.90;;;25.70;89.90;;;;;;5088994;28;20311;-65
2022/07/20 08:41:59;;;;;;;3.33;2.75;;;25.80;89.00;;;;;;5104980;27;20335;-65
2022/07/20 08:44:27;;;;;;;3.35;2.50;;;25.80;88.60;;;;;;5085954;28;20832;-65
2022/07/20 08:47:10;;;;;;;2.50;2.40;;;25.90;88.70;;;;;;5088875;28;20184;-64
2022/07/20 08:49:39;;;;;;;5.60;3.75;;;25.90;88.70;;;;;;5091312;28;20191;-65
2022/07/20 08:52:07;;;;;;;3.28;2.90;;;26.00;88.40;;;;;;5091924;28;20200;-65
2022/07/20 08:54:35;;;;;;;2.70;2.53;;;26.00;87.90;;;;;;5088634;28;20591;-64
2022/07/20 08:57:08;;;;;;;3.22;2.90;;;26.10;87.90;;;;;;5088476;28;20291;-65
2022/07/20 08:59:38;;;;;;;2.38;2.17;;;26.20;87.80;;;;;;5102773;27;20319;-65
2022/07/20 09:02:10;;;;;;;3.55;2.42;;;26.30;87.60;;;;;;5092520;28;20635;-65
2022/07/20 09:04:51;;;;;;;2.30;2.20;;;26.40;87.00;;;;;;5087921;28;20220;-65
2022/07/20 09:07:37;;;;;;;2.08;1.98;;;26.40;86.70;;;;;;5088439;28;20192;-65
2022/07/20 09:10:07;;;;;;;2.20;2.10;;;26.50;86.60;;;;;;5087573;28;20196;-65
2022/07/20 09:12:53;;;;;;;2.90;2.60;;;26.50;86.00;;;;;;5087572;28;20284;-65
2022/07/20 09:15:36;;;;;;;3.72;2.53;;;26.60;86.10;;;;;;5088369;28;20254;-65
2022/07/20 09:18:11;;;;;;;2.40;2.20;;;26.60;86.30;;;;;;5088837;28;20199;-65
2022/07/20 09:20:40;;;;;;;4.07;2.60;;;26.70;86.10;;;;;;5086754;28;20758;-65
2022/07/20 09:23:09;;;;;;;3.13;2.92;;;26.80;85.40;;;;;;5087273;28;20203;-65
2022/07/20 09:25:37;;;;;;;3.28;3.08;;;26.80;85.10;;;;;;5088889;28;20200;-65
2022/07/20 09:28:04;;;;;;;2.60;2.40;;;26.90;84.90;;;;;;5087665;28;20207;-65
2022/07/20 09:30:32;;;;;;;2.25;2.15;;;26.90;84.10;;;;;;5087084;28;20810;-64
2022/07/20 09:33:01;;;;;;;2.67;2.50;;;27.00;84.00;;;;;;5088946;28;20329;-64
2022/07/20 09:35:32;;;;;;;2.95;2.65;;;27.00;83.30;;;;;;5090956;28;20188;-64
2022/07/20 09:38:02;;;;;;;2.00;1.90;;;27.10;83.80;;;;;;5087784;28;21956;-65
2022/07/20 09:40:38;;;;;;;2.15;2.05;;;27.20;83.70;;;;;;5087233;28;20765;-65
2022/07/20 09:43:06;;;;;;;2.20;2.00;;;27.20;83.60;;;;;;5086404;28;20191;-64
2022/07/20 09:45:33;;;;;;;2.28;2.17;;;27.30;83.90;;;;;;5086946;28;20283;-64
2022/07/20 09:48:03;;;;;;;2.80;2.28;;;27.40;84.00;;;;;;5081714;28;20280;-65
2022/07/20 09:50:34;;;;;;;3.13;2.83;;;27.50;84.40;;;;;;5087117;28;20196;-64
2022/07/20 09:53:01;;;;;;;2.60;2.40;;;27.60;83.80;;;;;;5087006;28;20196;-64
2022/07/20 09:55:30;;;;;;;3.30;2.00;;;27.60;83.00;;;;;;5087171;28;20603;-64
2022/07/20 09:57:57;;;;;;;2.60;2.40;;;27.70;82.80;;;;;;5087778;28;20193;-65
2022/07/20 10:00:27;;;;;;;2.78;2.50;;;27.70;82.40;;;;;;5087691;28;20296;-64
2022/07/20 10:02:56;;;;;;;2.20;2.10;;;27.80;82.20;;;;;;5088332;28;20200;-64
2022/07/20 10:05:24;;;;;;;2.63;2.42;;;27.80;81.90;;;;;;5084318;28;20204;-65
2022/07/20 10:07:52;;;;;;;4.63;3.03;;;27.80;81.80;;;;;;5087178;28;20650;-64
2022/07/20 10:10:19;;;;;;;2.40;2.20;;;27.90;81.60;;;;;;5084912;28;20196;-64
2022/07/20 10:12:47;;;;;;;2.60;2.50;;;28.00;81.00;;;;;;5087237;28;20212;-64
2022/07/20 10:15:17;;;;;;;2.47;2.38;;;28.00;81.10;;;;;;5091311;28;20228;-64
2022/07/20 10:17:45;;;;;;;3.80;3.25;;;28.00;81.10;;;;;;5088598;28;20284;-65
2022/07/20 10:20:38;;;;;;;2.75;2.50;;;28.10;79.80;;;;;;5088144;28;20208;-64
2022/07/20 10:23:33;;;;;;;3.22;2.88;;;28.10;78.70;;;;;;5074932;28;20219;-64
2022/07/20 10:26:02;;;;;;;5.07;2.53;;;28.20;78.30;;;;;;5087604;28;20277;-64
2022/07/20 10:28:34;;;;;;;3.50;3.20;;;28.30;78.20;;;;;;5087503;28;20808;-64
2022/07/20 10:31:05;;;;;;;3.63;2.88;;;28.30;79.40;;;;;;5097807;27;20203;-64
2022/07/20 10:33:34;;;;;;;6.78;2.95;;;28.30;80.00;;;;;;5079711;28;20859;-64
2022/07/20 10:39:35;;;;;;;2.40;2.30;;;28.40;80.60;;;;;;5084737;28;20207;-65
2022/07/20 10:42:22;;;;;;;3.15;2.85;;;28.40;81.30;;;;;;5086225;28;20229;-64
2022/07/20 10:44:50;;;;;;;2.72;2.53;;;28.50;80.70;;;;;;5086298;28;20929;-65
2022/07/20 10:47:42;;;;;;;2.75;2.55;;;28.50;81.00;;;;;;5085293;28;20221;-65
2022/07/20 10:50:10;;;;;;;3.13;2.72;;;28.50;80.80;;;;;;5102647;27;20330;-65
2022/07/20 10:52:37;;;;;;;3.13;2.78;;;28.50;81.10;;;;;;5084098;27;20801;-64
2022/07/20 10:55:06;;;;;;;3.33;2.90;;;28.50;81.30;;;;;;5084782;28;20797;-65
2022/07/20 10:57:36;;;;;;;3.70;3.33;;;28.50;81.30;;;;;;5084925;28;20200;-65
2022/07/20 11:00:13;;;;;;;4.25;3.42;;;28.50;81.10;;;;;;5085368;28;20208;-64
2022/07/20 11:02:41;;;;;;;3.67;3.33;;;28.60;81.50;;;;;;5085610;28;20188;-65
2022/07/20 11:05:21;;;;;;;3.50;3.20;;;28.60;81.70;;;;;;5085036;28;20207;-64
2022/07/20 11:07:48;;;;;;;3.30;2.95;;;28.60;82.10;;;;;;5086020;28;20252;-64
2022/07/20 11:10:22;;;;;;;4.32;3.03;;;28.60;82.00;;;;;;5082448;28;20253;-64
2022/07/20 11:13:00;;;;;;;3.95;3.15;;;28.60;81.60;;;;;;5081901;27;20318;-64
2022/07/20 11:15:39;;;;;;;5.00;3.17;;;28.60;81.10;;;;;;5086649;28;20242;-62
2022/07/20 11:18:07;;;;;;;4.10;3.70;;;28.60;81.30;;;;;;5087044;28;20280;-62
2022/07/20 11:20:35;;;;;;;4.85;3.50;;;28.60;81.70;;;;;;5086098;28;20312;-62
2022/07/20 11:23:03;;;;;;;3.80;3.47;;;28.60;82.20;;;;;;5085116;28;20207;-63
2022/07/20 11:25:53;;;;;;;5.60;3.47;;;28.60;82.20;;;;;;5085832;28;20204;-63
2022/07/20 11:28:24;;;;;;;3.65;3.28;;;28.60;82.20;;;;;;5086095;28;20219;-63
2022/07/20 11:30:53;;;;;;;3.50;3.20;;;28.50;82.10;;;;;;5083717;28;20580;-63
2022/07/20 11:33:28;;;;;;;3.28;2.55;;;28.50;81.00;;;;;;5085871;28;20196;-64
2022/07/20 11:35:57;;;;;;;3.03;2.83;;;28.60;81.20;;;;;;5085935;28;20811;-63
2022/07/20 11:38:24;;;;;;;5.47;3.00;;;28.50;81.20;;;;;;5084647;28;20219;-63
2022/07/20 11:41:00;;;;;;;2.95;2.75;;;28.50;81.80;;;;;;5084109;28;20311;-64
2022/07/20 11:43:28;;;;;;;2.78;2.58;;;28.60;82.30;;;;;;5085265;28;20200;-63
2022/07/20 11:46:09;;;;;;;3.15;2.85;;;28.60;82.40;;;;;;5087668;28;20201;-64
2022/07/20 11:48:36;;;;;;;3.20;2.90;;;28.60;82.50;;;;;;5088440;28;20431;-64
2022/07/20 11:51:03;;;;;;;3.38;3.05;;;28.60;81.80;;;;;;5085774;28;20681;-63
2022/07/20 11:53:32;;;;;;;3.40;3.08;;;28.60;81.30;;;;;;5085095;28;20199;-63
2022/07/20 11:56:02;;;;;;;2.80;2.60;;;28.60;80.60;;;;;;5085733;28;20210;-63
2022/07/20 11:58:32;;;;;;;3.40;3.05;;;28.70;80.60;;;;;;5083396;28;20256;-64
2022/07/20 12:01:00;;;;;;;3.22;2.97;;;28.70;80.20;;;;;;5086438;28;20713;-64
2022/07/20 12:03:30;;;;;;;2.92;2.72;;;28.70;79.50;;;;;;5084868;28;20214;-64
2022/07/20 12:06:01;;;;;;;5.65;2.90;;;28.80;79.20;;;;;;5083400;28;20314;-63
2022/07/20 12:08:28;;;;;;;3.13;2.85;;;28.70;79.10;;;;;;5087321;28;20199;-64
2022/07/20 12:10:56;;;;;;;10.20;3.22;;;28.80;79.60;;;;;;5082220;28;20349;-64
2022/07/20 12:13:24;;;;;;;2.95;2.75;;;28.70;80.10;;;;;;5083486;28;20203;-64
2022/07/20 12:15:57;;;;;;;3.10;2.80;;;28.80;80.10;;;;;;5088431;28;20270;-64
2022/07/20 12:18:39;;;;;;;2.95;2.75;;;28.80;79.80;;;;;;5114855;27;20269;-63
2022/07/20 12:21:07;;;;;;;4.28;2.90;;;28.70;79.80;;;;;;5084649;28;20211;-64
2022/07/20 12:23:36;;;;;;;3.88;3.10;;;28.70;80.10;;;;;;5081939;28;20219;-64
2022/07/20 12:26:19;;;;;;;3.55;2.72;;;28.70;80.10;;;;;;5084904;28;20238;-65
2022/07/20 12:28:47;;;;;;;5.03;3.25;;;28.80;80.00;;;;;;5085465;28;20208;-64
2022/07/20 12:31:17;;;;;;;5.93;3.40;;;28.80;79.60;;;;;;5083791;28;20326;-64
2022/07/20 12:34:04;;;;;;;3.65;3.15;;;28.80;79.70;;;;;;5083497;28;20775;-64
2022/07/20 12:36:37;;;;;;;3.33;3.10;;;28.80;79.60;;;;;;5084353;28;20350;-64
2022/07/20 12:39:06;;;;;;;3.00;2.80;;;28.80;79.30;;;;;;5084527;28;20196;-64
2022/07/20 12:41:33;;;;;;;2.90;2.70;;;28.90;79.40;;;;;;5082979;28;20572;-64
2022/07/20 12:44:20;;;;;;;3.08;2.80;;;28.80;79.30;;;;;;5086348;28;20531;-64
2022/07/20 12:46:49;;;;;;;3.30;3.00;;;28.90;79.60;;;;;;5084605;28;20273;-64
2022/07/20 12:49:20;;;;;;;4.13;3.60;;;28.80;79.20;;;;;;5085343;28;20635;-64
2022/07/20 12:51:47;;;;;;;4.38;3.90;;;28.80;79.30;;;;;;5085630;28;20726;-64
2022/07/20 12:54:14;;;;;;;4.40;3.92;;;28.80;79.60;;;;;;5085019;28;20288;-64
2022/07/20 12:56:41;;;;;;;4.78;3.05;;;28.80;79.40;;;;;;5084714;28;20309;-64
2022/07/20 12:59:08;;;;;;;5.57;3.40;;;28.80;79.40;;;;;;5083619;28;20192;-65
2022/07/20 13:01:36;;;;;;;3.75;3.15;;;28.70;79.50;;;;;;5087672;28;20239;-64
2022/07/20 13:04:04;;;;;;;3.00;2.80;;;28.70;79.90;;;;;;5085525;28;20210;-64
2022/07/20 13:06:33;;;;;;;3.15;2.85;;;28.70;79.90;;;;;;5087349;28;20656;-64